Time;durP1;ratioP1;P1;durP2;ratioP2;P2;SDS_P1;SDS_P2;PMS_P1;PMS_P2;Temp;Humidity;BMP_temperature;BMP_pressure;BME280_temperature;BME280_humidity;BME280_pressure;Samples;Min_cycle;Max_cycle;Signal;HPM_P1;HPM_P2
2023/04/22 00:00:09;;;;;;;0.60;0.60;;;;;;;8.97;73.52;97122.38;5056868;28;20044;-69
2023/04/22 00:02:37;;;;;;;0.52;0.52;;;;;;;9.04;72.93;97118.72;5056749;28;20094;-69
2023/04/22 00:05:06;;;;;;;0.80;0.80;;;;;;;8.97;73.43;97117.06;5054969;28;20123;-71
2023/04/22 00:07:34;;;;;;;0.20;0.20;;;;;;;8.90;73.79;97122.34;5056957;28;20486;-69
2023/04/22 00:10:02;;;;;;;0.98;0.98;;;;;;;8.95;72.84;97119.91;5053402;28;20052;-69
2023/04/22 00:12:29;;;;;;;0.73;0.73;;;;;;;9.00;72.78;97119.34;5054005;28;20501;-69
2023/04/22 00:14:57;;;;;;;0.73;0.73;;;;;;;9.00;72.88;97114.00;5057656;28;20045;-69
2023/04/22 00:17:26;;;;;;;0.55;0.55;;;;;;;8.91;73.23;97116.00;5055412;28;20069;-69
2023/04/22 00:19:55;;;;;;;0.70;0.70;;;;;;;8.84;73.28;97102.66;5065870;28;20119;-69
2023/04/22 00:22:22;;;;;;;0.68;0.68;;;;;;;8.80;73.24;97109.41;5056369;28;20095;-69
2023/04/22 00:24:50;;;;;;;0.68;0.68;;;;;;;8.73;73.75;97102.38;5053273;28;20044;-72
2023/04/22 00:27:18;;;;;;;0.30;0.20;;;;;;;8.63;74.12;97099.22;5048733;28;20468;-71
2023/04/22 00:29:45;;;;;;;0.80;0.80;;;;;;;8.63;74.21;97100.06;5054218;28;20082;-69
2023/04/22 00:32:13;;;;;;;0.70;0.70;;;;;;;8.65;74.06;97099.88;5051827;28;20040;-69
2023/04/22 00:34:42;;;;;;;0.80;0.80;;;;;;;8.72;73.57;97106.06;5055161;28;20109;-72
2023/04/22 00:37:09;;;;;;;1.02;1.02;;;;;;;8.82;72.60;97098.56;5059265;28;20037;-69
2023/04/22 00:39:38;;;;;;;0.68;0.68;;;;;;;8.87;72.05;97092.63;5056910;28;20040;-69
2023/04/22 00:42:06;;;;;;;0.77;0.77;;;;;;;8.54;72.54;97100.41;5048247;28;20053;-71
2023/04/22 00:44:37;;;;;;;0.63;0.63;;;;;;;8.43;72.50;97089.28;5051893;28;20044;-70
2023/04/22 00:47:05;;;;;;;0.73;0.73;;;;;;;8.34;72.88;97087.78;5057719;28;20144;-71
2023/04/22 00:49:34;;;;;;;0.77;0.77;;;;;;;8.30;72.94;97089.19;5051452;28;20052;-72
2023/04/22 00:52:03;;;;;;;1.00;1.00;;;;;;;8.43;72.67;97083.13;5045479;28;20128;-69
2023/04/22 00:54:32;;;;;;;0.68;0.68;;;;;;;8.29;72.89;97098.16;5055907;28;20355;-71
2023/04/22 00:56:59;;;;;;;0.50;0.50;;;;;;;8.20;73.16;97091.31;5057029;28;20033;-72
2023/04/22 00:59:27;;;;;;;0.80;0.80;;;;;;;8.24;72.66;97089.09;5062858;28;20048;-71
2023/04/22 01:01:55;;;;;;;0.57;0.57;;;;;;;8.24;72.79;97092.59;5062088;28;20134;-72
2023/04/22 01:04:23;;;;;;;0.68;0.68;;;;;;;8.16;73.28;97078.63;5057797;28;20150;-71
2023/04/22 01:06:52;;;;;;;0.70;0.70;;;;;;;8.23;72.68;97084.78;5055284;28;20037;-71
2023/04/22 01:09:21;;;;;;;0.68;0.68;;;;;;;8.24;74.08;97083.78;5076116;28;20397;-71
2023/04/22 01:11:48;;;;;;;0.70;0.70;;;;;;;8.40;73.99;97080.88;5067473;28;20037;-69
2023/04/22 01:14:16;;;;;;;0.80;0.80;;;;;;;8.25;73.41;97075.63;5056246;28;20056;-69
2023/04/22 01:16:45;;;;;;;0.70;0.70;;;;;;;8.16;74.63;97066.16;5050822;28;20048;-69
2023/04/22 01:19:12;;;;;;;1.00;1.00;;;;;;;8.19;74.57;97064.94;5061773;28;20052;-72
2023/04/22 01:21:40;;;;;;;0.65;0.65;;;;;;;8.17;74.00;97062.47;5060516;28;20040;-71
2023/04/22 01:24:09;;;;;;;0.77;0.77;;;;;;;8.07;74.43;97062.00;5046966;28;20037;-71
2023/04/22 01:26:37;;;;;;;0.80;0.80;;;;;;;8.09;75.22;97059.97;5051528;28;20040;-70
2023/04/22 01:29:05;;;;;;;0.80;0.80;;;;;;;8.35;73.95;97051.38;5055043;28;20048;-70
2023/04/22 01:31:33;;;;;;;0.70;0.70;;;;;;;8.29;72.59;97063.59;5055896;28;20044;-71
2023/04/22 01:34:01;;;;;;;0.65;0.65;;;;;;;7.82;73.54;97074.84;5051804;28;20120;-70
2023/04/22 01:36:28;;;;;;;0.80;0.80;;;;;;;7.62;74.16;97071.16;5052421;28;20047;-71
2023/04/22 01:38:56;;;;;;;0.63;0.63;;;;;;;7.54;75.59;97076.59;5056584;28;20496;-68
2023/04/22 01:41:27;;;;;;;0.77;0.77;;;;;;;7.49;75.35;97085.13;5051701;28;20073;-71
2023/04/22 01:43:57;;;;;;;0.85;0.85;;;;;;;7.55;75.15;97084.38;5050501;28;20521;-68
2023/04/22 01:46:25;;;;;;;0.77;0.77;;;;;;;7.68;74.98;97084.50;5054222;28;20515;-68
2023/04/22 01:48:52;;;;;;;0.73;0.73;;;;;;;7.64;75.62;97101.03;5051940;28;20044;-71
2023/04/22 01:51:22;;;;;;;0.75;0.75;;;;;;;7.67;75.68;97090.03;5048013;28;20048;-71
2023/04/22 01:53:50;;;;;;;0.60;0.60;;;;;;;7.80;74.72;97095.44;5057743;28;20040;-71
2023/04/22 01:56:18;;;;;;;0.50;0.50;;;;;;;7.90;74.29;97097.78;5051933;28;20056;-69
2023/04/22 01:58:47;;;;;;;0.68;0.68;;;;;;;7.96;74.09;97089.91;5057306;28;20064;-71
2023/04/22 02:01:14;;;;;;;0.98;0.98;;;;;;;8.05;74.35;97093.25;5055321;28;20072;-71
2023/04/22 02:03:42;;;;;;;0.77;0.77;;;;;;;7.97;74.09;97093.38;5063551;28;20045;-71
2023/04/22 02:06:12;;;;;;;0.77;0.77;;;;;;;7.99;74.27;97086.03;5059229;28;20064;-68
2023/04/22 02:08:39;;;;;;;0.60;0.60;;;;;;;8.03;73.97;97087.28;5075118;28;20107;-69
2023/04/22 02:11:07;;;;;;;0.68;0.68;;;;;;;8.08;73.47;97087.56;5055608;28;20822;-68
2023/04/22 02:13:36;;;;;;;0.85;0.85;;;;;;;8.14;73.54;97084.13;5046461;28;20045;-67
2023/04/22 02:16:05;;;;;;;0.80;0.80;;;;;;;7.97;73.74;97080.09;5081509;28;20531;-68
2023/04/22 02:18:34;;;;;;;0.68;0.68;;;;;;;7.81;74.05;97077.69;5044333;28;20076;-68
2023/04/22 02:21:01;;;;;;;0.70;0.70;;;;;;;7.77;74.67;97082.56;5052951;28;20048;-71
2023/04/22 02:23:29;;;;;;;0.10;0.10;;;;;;;7.80;74.29;97078.69;5050832;28;20404;-69
2023/04/22 02:25:56;;;;;;;0.63;0.63;;;;;;;7.82;74.22;97084.63;5047571;28;20450;-68
2023/04/22 02:28:24;;;;;;;0.63;0.63;;;;;;;7.90;73.69;97081.84;5048414;28;20079;-68
2023/04/22 02:30:52;;;;;;;0.20;0.20;;;;;;;7.97;72.56;97077.44;5044540;28;20459;-68
2023/04/22 02:33:22;;;;;;;0.65;0.65;;;;;;;7.76;73.50;97080.94;5047027;28;20044;-69
2023/04/22 02:35:51;;;;;;;0.75;0.75;;;;;;;7.67;74.02;97077.56;5043426;28;20037;-69
2023/04/22 02:38:18;;;;;;;0.60;0.60;;;;;;;7.63;74.39;97076.28;5055877;28;20130;-72
2023/04/22 02:40:46;;;;;;;0.77;0.77;;;;;;;7.71;74.14;97076.16;5052943;28;20056;-69
2023/04/22 02:43:14;;;;;;;0.70;0.70;;;;;;;7.86;73.63;97086.75;5051605;28;20083;-71
2023/04/22 02:45:41;;;;;;;0.68;0.68;;;;;;;7.94;73.38;97080.47;5051318;28;20056;-68
2023/04/22 02:48:09;;;;;;;0.68;0.68;;;;;;;7.78;73.79;97078.09;5051543;28;20515;-69
2023/04/22 02:50:38;;;;;;;0.73;0.73;;;;;;;8.01;73.54;97087.47;5084154;28;20041;-68
2023/04/22 02:53:05;;;;;;;0.80;0.80;;;;;;;7.90;73.75;97087.16;5056285;28;20446;-68
2023/04/22 02:55:33;;;;;;;0.80;0.80;;;;;;;7.94;73.85;97083.13;5049505;28;20041;-69
2023/04/22 02:58:00;;;;;;;0.95;0.95;;;;;;;8.10;73.31;97085.50;5054312;28;20041;-68
2023/04/22 03:00:28;;;;;;;0.70;0.70;;;;;;;8.25;72.77;97080.13;5056671;28;20033;-68
2023/04/22 03:02:55;;;;;;;1.00;1.00;;;;;;;8.39;72.37;97076.59;5048415;28;20055;-68
2023/04/22 03:05:28;;;;;;;0.70;0.70;;;;;;;8.57;71.58;97081.41;5050918;28;20408;-69
2023/04/22 03:07:57;;;;;;;0.80;0.80;;;;;;;8.65;71.40;97075.94;5057158;28;20040;-69
2023/04/22 03:10:24;;;;;;;1.02;1.02;;;;;;;8.74;71.03;97070.25;5050108;28;20571;-68
2023/04/22 03:12:52;;;;;;;0.75;0.75;;;;;;;8.87;71.18;97069.50;5047698;28;20045;-69
2023/04/22 03:15:20;;;;;;;0.70;0.70;;;;;;;8.89;71.07;97067.47;5057622;28;20094;-68
2023/04/22 03:17:49;;;;;;;0.93;0.93;;;;;;;8.91;70.59;97056.63;5050113;28;20395;-69
2023/04/22 03:20:18;;;;;;;0.80;0.80;;;;;;;8.89;70.66;97056.84;5056143;28;20103;-69
2023/04/22 03:22:46;;;;;;;0.30;0.30;;;;;;;8.88;70.62;97054.38;5049496;28;20408;-69
2023/04/22 03:25:17;;;;;;;0.82;0.82;;;;;;;8.87;70.57;97047.41;5057202;28;20372;-69
2023/04/22 03:27:50;;;;;;;0.73;0.73;;;;;;;8.54;70.66;97042.72;5062334;28;20734;-69
2023/04/22 03:30:17;;;;;;;0.70;0.70;;;;;;;8.35;71.26;97049.56;5053996;28;20508;-69
2023/04/22 03:32:46;;;;;;;0.80;0.80;;;;;;;8.44;71.66;97052.88;5048819;28;20531;-68
2023/04/22 03:35:20;;;;;;;0.73;0.73;;;;;;;8.48;71.01;97048.81;5057922;28;20083;-68
2023/04/22 03:37:50;;;;;;;0.65;0.65;;;;;;;8.27;71.50;97055.00;5049300;28;20064;-68
2023/04/22 03:40:24;;;;;;;0.57;0.57;;;;;;;8.35;71.21;97049.56;5050072;28;20049;-68
2023/04/22 03:42:54;;;;;;;0.70;0.70;;;;;;;8.34;71.49;97044.44;5063656;28;20131;-69
2023/04/22 03:45:22;;;;;;;0.70;0.70;;;;;;;8.35;71.53;97049.56;5056940;28;20045;-69
2023/04/22 03:48:06;;;;;;;0.85;0.85;;;;;;;8.35;71.75;97059.38;5044888;28;20049;-70
2023/04/22 03:50:40;;;;;;;0.65;0.65;;;;;;;8.37;71.24;97058.16;5048735;28;20044;-69
2023/04/22 03:53:08;;;;;;;0.93;0.93;;;;;;;8.52;71.00;97051.91;5044037;28;20056;-69
2023/04/22 03:55:38;;;;;;;0.75;0.75;;;;;;;8.52;71.02;97066.03;5052257;28;20045;-69
2023/04/22 03:58:06;;;;;;;0.20;0.20;;;;;;;8.58;71.28;97064.44;5051769;28;20408;-69
2023/04/22 04:00:33;;;;;;;0.90;0.90;;;;;;;8.65;70.62;97054.66;5046254;28;20404;-68
2023/04/22 04:03:13;;;;;;;0.70;0.70;;;;;;;8.79;70.35;97064.34;5046094;28;20140;-69
2023/04/22 04:05:42;;;;;;;0.68;0.68;;;;;;;8.92;69.60;97058.28;5054965;28;20049;-68
2023/04/22 04:08:10;;;;;;;0.65;0.65;;;;;;;8.90;69.50;97062.97;5051666;28;20063;-69
2023/04/22 04:10:38;;;;;;;0.68;0.68;;;;;;;8.99;68.99;97067.13;5059021;28;20419;-69
2023/04/22 04:13:07;;;;;;;0.70;0.70;;;;;;;9.06;68.63;97067.97;5051257;28;20103;-69
2023/04/22 04:15:47;;;;;;;0.57;0.57;;;;;;;9.15;68.19;97072.09;5049978;28;20076;-69
2023/04/22 04:18:17;;;;;;;0.40;0.40;;;;;;;9.11;68.41;97062.88;5052969;28;20533;-69
2023/04/22 04:20:46;;;;;;;0.65;0.65;;;;;;;9.10;68.57;97067.38;5055704;28;20044;-69
2023/04/22 04:23:14;;;;;;;0.60;0.60;;;;;;;9.19;68.22;97070.69;5046347;28;20053;-69
2023/04/22 04:25:44;;;;;;;0.75;0.75;;;;;;;9.23;68.08;97073.78;5058795;28;20036;-69
2023/04/22 04:28:13;;;;;;;0.60;0.60;;;;;;;9.22;68.08;97067.63;5053575;28;20048;-69
2023/04/22 04:30:41;;;;;;;0.75;0.75;;;;;;;9.23;67.86;97066.63;5054734;28;20045;-69
2023/04/22 04:33:10;;;;;;;0.70;0.70;;;;;;;9.31;68.15;97071.75;5051550;28;20253;-69
2023/04/22 04:35:42;;;;;;;0.65;0.65;;;;;;;9.28;67.64;97074.00;5068842;28;20093;-69
2023/04/22 04:38:13;;;;;;;0.20;0.20;;;;;;;9.33;67.86;97068.91;5050758;28;20466;-69
2023/04/22 04:40:44;;;;;;;0.82;0.82;;;;;;;9.39;67.60;97071.56;5053141;28;20040;-69
2023/04/22 04:43:19;;;;;;;0.73;0.73;;;;;;;9.38;67.64;97071.78;5065108;28;20107;-70
2023/04/22 04:45:52;;;;;;;0.68;0.68;;;;;;;9.43;67.28;97069.34;5061178;28;20131;-70
2023/04/22 04:48:26;;;;;;;0.88;0.88;;;;;;;9.47;66.81;97073.22;5046161;28;20056;-69
2023/04/22 04:51:00;;;;;;;0.60;0.60;;;;;;;9.55;67.24;97073.88;5042031;28;20037;-69
2023/04/22 04:53:31;;;;;;;0.70;0.70;;;;;;;9.56;66.99;97067.53;5051475;28;20045;-69
2023/04/22 04:55:59;;;;;;;0.55;0.55;;;;;;;9.58;66.83;97065.47;5050995;28;20045;-69
2023/04/22 04:58:29;;;;;;;0.68;0.68;;;;;;;9.57;66.58;97066.50;5050778;28;20060;-70
2023/04/22 05:01:22;;;;;;;0.60;0.60;;;;;;;9.65;66.15;97065.50;5038791;28;20054;-70
2023/04/22 05:03:51;;;;;;;0.73;0.73;;;;;;;9.67;66.08;97079.44;5044618;28;20395;-69
2023/04/22 05:06:20;;;;;;;0.55;0.55;;;;;;;9.72;66.04;97070.84;5046606;28;20049;-70
2023/04/22 05:08:53;;;;;;;0.73;0.73;;;;;;;9.76;65.76;97080.88;5049742;28;20192;-70
2023/04/22 05:11:20;;;;;;;0.60;0.60;;;;;;;9.84;65.41;97071.91;5062801;28;20049;-70
2023/04/22 05:13:51;;;;;;;0.60;0.60;;;;;;;9.89;65.14;97086.25;5051419;28;20129;-69
2023/04/22 05:16:26;;;;;;;0.73;0.73;;;;;;;9.96;65.02;97083.59;5077778;28;20037;-69
2023/04/22 05:18:54;;;;;;;1.38;1.38;;;;;;;10.01;64.85;97088.31;5053902;28;20107;-72
2023/04/22 05:21:22;;;;;;;0.60;0.60;;;;;;;10.05;64.75;97081.56;5070643;28;20045;-70
2023/04/22 05:23:50;;;;;;;0.60;0.60;;;;;;;10.12;64.52;97088.53;5054749;28;20141;-70
2023/04/22 05:26:19;;;;;;;0.80;0.80;;;;;;;10.16;64.28;97091.63;5087030;28;20045;-69
2023/04/22 05:28:49;;;;;;;0.40;0.40;;;;;;;10.24;64.07;97094.13;5052772;28;20523;-69
2023/04/22 05:31:19;;;;;;;0.60;0.60;;;;;;;10.32;63.89;97091.22;5088404;28;20339;-69
2023/04/22 05:33:47;;;;;;;0.82;0.82;;;;;;;10.38;63.74;97092.28;5054320;28;20492;-70
2023/04/22 05:36:15;;;;;;;0.73;0.73;;;;;;;10.40;63.75;97093.69;5067383;28;20052;-70
2023/04/22 05:38:46;;;;;;;0.57;0.57;;;;;;;10.46;63.51;97092.88;5052897;28;20508;-69
2023/04/22 05:41:14;;;;;;;0.88;0.88;;;;;;;10.53;63.11;97093.69;5074322;28;20045;-71
2023/04/22 05:43:42;;;;;;;0.80;0.80;;;;;;;10.61;62.80;97085.47;5046537;28;20132;-70
2023/04/22 05:46:15;;;;;;;0.68;0.68;;;;;;;10.70;62.60;97085.25;5040179;28;20048;-70
2023/04/22 05:48:45;;;;;;;0.52;0.52;;;;;;;10.79;62.34;97084.84;5056317;28;20041;-69
2023/04/22 05:51:39;;;;;;;0.70;0.70;;;;;;;10.91;62.13;97085.00;5057186;28;20505;-69
2023/04/22 05:54:08;;;;;;;0.55;0.55;;;;;;;10.97;61.66;97082.31;5047969;28;20500;-69
2023/04/22 05:56:36;;;;;;;0.80;0.80;;;;;;;11.06;61.28;97092.78;5053900;28;20076;-68
2023/04/22 05:59:04;;;;;;;0.65;0.65;;;;;;;11.15;61.43;97088.84;5061328;28;20047;-69
2023/04/22 06:01:32;;;;;;;0.60;0.60;;;;;;;11.21;61.28;97096.81;5082219;28;20045;-69
2023/04/22 06:04:05;;;;;;;0.57;0.57;;;;;;;11.29;61.01;97085.91;5052003;28;20047;-69
2023/04/22 06:06:33;;;;;;;0.63;0.63;;;;;;;11.42;60.89;97081.56;5052617;28;20536;-69
2023/04/22 06:09:01;;;;;;;0.55;0.55;;;;;;;11.52;60.42;97085.41;5062452;28;20048;-69
2023/04/22 06:11:28;;;;;;;0.63;0.63;;;;;;;11.57;60.35;97084.75;5049936;28;20037;-70
2023/04/22 06:13:56;;;;;;;0.60;0.60;;;;;;;11.62;60.19;97083.09;5058001;28;20037;-69
2023/04/22 06:16:23;;;;;;;0.60;0.60;;;;;;;11.71;59.94;97089.00;5050868;28;20041;-71
2023/04/22 06:18:51;;;;;;;0.50;0.50;;;;;;;11.80;59.59;97082.41;5055341;28;20075;-68
2023/04/22 06:21:22;;;;;;;0.50;0.50;;;;;;;11.91;59.41;97081.72;5085202;28;20033;-69
2023/04/22 06:23:50;;;;;;;0.63;0.63;;;;;;;12.05;58.80;97077.91;5045699;28;20036;-70
2023/04/22 06:26:17;;;;;;;0.60;0.60;;;;;;;12.15;58.65;97087.34;5048427;28;20071;-70
2023/04/22 06:28:45;;;;;;;1.08;1.08;;;;;;;12.27;59.17;97086.38;5056877;28;20058;-69
2023/04/22 06:31:17;;;;;;;0.60;0.60;;;;;;;12.37;58.29;97086.72;5052859;28;20041;-69
2023/04/22 06:33:47;;;;;;;0.10;0.10;;;;;;;12.46;57.93;97085.41;5051702;28;20427;-69
2023/04/22 06:36:15;;;;;;;0.50;0.50;;;;;;;12.59;57.59;97089.81;5049267;28;20080;-71
2023/04/22 06:38:47;;;;;;;0.60;0.60;;;;;;;12.71;57.30;97085.41;5051028;28;20044;-70
2023/04/22 06:41:27;;;;;;;0.63;0.63;;;;;;;12.92;57.41;97083.34;5054984;28;20037;-70
2023/04/22 06:43:59;;;;;;;0.60;0.60;;;;;;;13.07;56.23;97092.66;5046383;28;20041;-70
2023/04/22 06:46:45;;;;;;;0.50;0.50;;;;;;;13.15;56.02;97095.06;5036529;28;20048;-70
2023/04/22 06:49:42;;;;;;;0.65;0.65;;;;;;;13.23;56.04;97096.63;5049711;28;20049;-70
2023/04/22 06:52:24;;;;;;;0.68;0.68;;;;;;;13.33;55.87;97093.44;5073270;28;20334;-69
2023/04/22 06:54:57;;;;;;;0.50;0.50;;;;;;;13.43;55.96;97102.59;5050496;28;20064;-71
2023/04/22 06:57:25;;;;;;;1.02;1.02;;;;;;;13.47;55.30;97098.41;5040057;28;20055;-70
2023/04/22 06:59:53;;;;;;;0.73;0.73;;;;;;;13.55;55.30;97087.38;5040991;28;20048;-70
2023/04/22 07:02:22;;;;;;;0.40;0.40;;;;;;;13.64;54.93;97097.78;5053267;28;20041;-70
2023/04/22 07:04:49;;;;;;;0.57;0.57;;;;;;;13.74;54.01;97090.84;5070508;28;20095;-71
2023/04/22 07:07:17;;;;;;;0.47;0.47;;;;;;;13.94;53.27;97094.06;5040768;28;20341;-70
2023/04/22 07:09:45;;;;;;;0.47;0.47;;;;;;;14.22;52.57;97095.34;5037714;28;20045;-70
2023/04/22 07:12:14;;;;;;;0.50;0.50;;;;;;;14.46;50.89;97093.53;5050873;28;20049;-70
2023/04/22 07:14:43;;;;;;;0.80;0.80;;;;;;;14.60;50.80;97081.50;5047487;28;20060;-70
2023/04/22 07:17:11;;;;;;;0.40;0.40;;;;;;;14.68;50.52;97079.28;5043884;28;20037;-69
2023/04/22 07:19:38;;;;;;;0.85;0.85;;;;;;;14.91;49.27;97081.16;5053023;28;20091;-70
2023/04/22 07:22:06;;;;;;;0.85;0.85;;;;;;;15.01;48.87;97078.72;5064033;22;20045;-75
2023/04/22 07:24:34;;;;;;;0.63;0.63;;;;;;;15.11;47.89;97083.47;5011943;28;20176;-75
2023/04/22 07:27:02;;;;;;;0.50;0.50;;;;;;;15.09;47.70;97074.00;5009046;28;20056;-73
2023/04/22 07:29:31;;;;;;;0.50;0.50;;;;;;;15.19;47.90;97082.28;5011430;28;20050;-73
2023/04/22 07:31:58;;;;;;;0.52;0.52;;;;;;;15.20;47.91;97084.75;5003701;28;20080;-75
2023/04/22 07:34:26;;;;;;;0.40;0.40;;;;;;;15.26;47.89;97085.69;5010397;28;20052;-73
2023/04/22 07:36:54;;;;;;;0.40;0.40;;;;;;;15.33;47.67;97091.75;5007730;28;20080;-73
2023/04/22 07:39:22;;;;;;;0.52;0.52;;;;;;;15.40;47.55;97081.66;5006985;28;20045;-73
2023/04/22 07:41:50;;;;;;;0.40;0.40;;;;;;;15.58;47.65;97075.31;5004898;28;20068;-73
2023/04/22 07:44:20;;;;;;;0.50;0.50;;;;;;;15.68;47.24;97073.66;5009294;28;20473;-76
2023/04/22 07:46:49;;;;;;;0.50;0.50;;;;;;;15.74;47.18;97077.28;5010322;28;20046;-75
2023/04/22 07:49:17;;;;;;;0.65;0.65;;;;;;;15.84;47.37;97072.09;5004576;28;20046;-73
2023/04/22 07:51:44;;;;;;;0.60;0.60;;;;;;;15.97;47.56;97070.97;5008841;28;20088;-73
2023/04/22 07:54:12;;;;;;;0.50;0.50;;;;;;;16.05;47.43;97066.00;5008766;28;20081;-74
2023/04/22 07:56:40;;;;;;;0.90;0.90;;;;;;;16.12;47.63;97063.97;4998084;28;20107;-73
2023/04/22 07:59:07;;;;;;;0.60;0.60;;;;;;;16.19;47.44;97071.91;5010701;28;20378;-74
2023/04/22 08:01:35;;;;;;;0.60;0.60;;;;;;;16.22;47.34;97066.03;5008228;28;20050;-75
2023/04/22 08:04:04;;;;;;;0.10;0.10;;;;;;;16.29;47.01;97060.50;5007930;28;20444;-73
2023/04/22 08:06:32;;;;;;;0.50;0.50;;;;;;;16.35;46.11;97054.13;5012686;28;20046;-73
2023/04/22 08:09:00;;;;;;;0.43;0.43;;;;;;;16.36;46.66;97055.75;5012000;28;20053;-73
2023/04/22 08:11:27;;;;;;;0.47;0.47;;;;;;;16.38;46.07;97051.75;5011241;28;20104;-73
2023/04/22 08:13:55;;;;;;;0.50;0.50;;;;;;;16.43;46.10;97051.84;5020595;28;20152;-73
2023/04/22 08:16:22;;;;;;;0.70;0.70;;;;;;;16.48;46.02;97043.03;5021029;28;20064;-73
2023/04/22 08:18:50;;;;;;;0.50;0.50;;;;;;;16.51;45.41;97039.81;5006366;28;20038;-75
2023/04/22 08:21:19;;;;;;;0.47;0.47;;;;;;;16.55;45.16;97040.16;5012667;28;20076;-75
2023/04/22 08:23:47;;;;;;;0.43;0.43;;;;;;;16.63;46.03;97051.38;5014406;28;20100;-73
2023/04/22 08:26:15;;;;;;;0.57;0.57;;;;;;;16.78;44.88;97040.00;5007093;28;20460;-76
2023/04/22 08:28:43;;;;;;;0.50;0.50;;;;;;;16.92;45.12;97046.69;5012026;28;20034;-74
2023/04/22 08:31:13;;;;;;;0.40;0.40;;;;;;;16.92;45.07;97038.59;5007954;28;20054;-74
2023/04/22 08:33:41;;;;;;;0.47;0.47;;;;;;;16.95;44.33;97040.78;5014134;28;20045;-74
2023/04/22 08:36:09;;;;;;;0.45;0.45;;;;;;;16.87;44.87;97039.34;5016327;28;20038;-75
2023/04/22 08:38:41;;;;;;;0.50;0.50;;;;;;;16.93;44.42;97045.59;5011331;28;20092;-76
2023/04/22 08:41:09;;;;;;;0.52;0.52;;;;;;;16.92;44.46;97037.78;5018815;28;20045;-74
2023/04/22 08:43:37;;;;;;;0.47;0.47;;;;;;;17.03;44.57;97032.25;5012067;28;20505;-74
2023/04/22 08:46:05;;;;;;;0.40;0.40;;;;;;;17.11;44.02;97017.53;5010177;28;20042;-74
2023/04/22 08:48:33;;;;;;;0.47;0.47;;;;;;;17.07;44.06;97038.78;5006762;28;20060;-76
2023/04/22 08:51:00;;;;;;;0.60;0.60;;;;;;;17.04;44.16;97039.28;5014283;28;20073;-73
2023/04/22 08:53:28;;;;;;;0.47;0.47;;;;;;;17.06;44.15;97034.47;5013668;28;20500;-73
2023/04/22 08:55:57;;;;;;;0.60;0.60;;;;;;;17.14;43.89;97027.81;5006120;28;20038;-74
2023/04/22 08:58:25;;;;;;;0.50;0.50;;;;;;;17.09;44.04;97027.75;5008881;28;20099;-73
2023/04/22 09:00:52;;;;;;;0.60;0.60;;;;;;;17.14;44.33;97035.91;5028431;28;20069;-73
2023/04/22 09:03:21;;;;;;;0.40;0.40;;;;;;;17.18;43.29;97021.69;5018073;28;20042;-73
2023/04/22 09:05:51;;;;;;;0.60;0.60;;;;;;;17.11;42.86;97018.38;5015567;28;20386;-73
2023/04/22 09:08:19;;;;;;;0.40;0.40;;;;;;;17.17;42.89;97030.00;5020591;28;20060;-74
2023/04/22 09:10:46;;;;;;;0.50;0.50;;;;;;;17.30;43.33;97026.13;5014753;28;20046;-73
2023/04/22 09:13:16;;;;;;;0.30;0.30;;;;;;;17.52;43.08;97027.75;5005927;28;20420;-74
2023/04/22 09:15:45;;;;;;;0.43;0.43;;;;;;;17.75;41.83;97020.47;5017429;28;20046;-74
2023/04/22 09:18:12;;;;;;;0.10;0.10;;;;;;;17.85;41.92;97029.50;5010239;28;20428;-73
2023/04/22 09:20:42;;;;;;;0.52;0.52;;;;;;;17.91;41.80;97023.06;5004845;28;20052;-73
2023/04/22 09:23:11;;;;;;;0.50;0.50;;;;;;;18.03;41.24;97024.81;5012076;28;20408;-73
2023/04/22 09:25:40;;;;;;;0.40;0.40;;;;;;;18.08;41.78;97027.53;5011294;28;20054;-73
2023/04/22 09:28:11;;;;;;;0.50;0.50;;;;;;;18.13;41.10;97016.78;5012237;28;20067;-73
2023/04/22 09:30:40;;;;;;;0.32;0.32;;;;;;;18.38;40.46;97019.69;5009424;28;20089;-73
2023/04/22 09:33:08;;;;;;;0.40;0.40;;;;;;;18.48;40.87;97014.34;5009081;28;20046;-73
2023/04/22 09:35:36;;;;;;;0.47;0.47;;;;;;;18.66;40.34;97022.09;5016051;28;20088;-73
2023/04/22 09:38:06;;;;;;;0.40;0.40;;;;;;;18.69;39.52;97023.44;5014265;28;20048;-73
2023/04/22 09:40:35;;;;;;;0.35;0.35;;;;;;;18.72;39.47;97022.94;5011639;28;20497;-73
2023/04/22 09:43:04;;;;;;;0.40;0.40;;;;;;;18.85;39.15;97022.50;5010921;28;20038;-74
2023/04/22 09:45:33;;;;;;;0.40;0.40;;;;;;;18.87;38.12;97025.75;5011894;28;20147;-74
2023/04/22 09:48:05;;;;;;;0.47;0.47;;;;;;;19.06;37.59;97026.13;5010229;28;20049;-74
2023/04/22 09:50:33;;;;;;;0.10;0.10;;;;;;;19.12;37.55;97024.25;5012457;28;20646;-74
2023/04/22 09:53:02;;;;;;;0.38;0.38;;;;;;;19.35;37.87;97026.53;5005925;28;20497;-74
2023/04/22 09:55:34;;;;;;;0.52;0.52;;;;;;;19.64;37.19;97019.63;5012213;28;20061;-74
2023/04/22 09:58:05;;;;;;;0.43;0.43;;;;;;;19.51;37.27;97017.44;5011598;28;20033;-74
2023/04/22 10:00:38;;;;;;;0.47;0.47;;;;;;;19.67;37.63;97018.28;5012818;28;20046;-74
2023/04/22 10:03:07;;;;;;;0.30;0.30;;;;;;;19.68;36.99;97015.31;5007698;28;20037;-74
2023/04/22 10:05:37;;;;;;;0.30;0.30;;;;;;;19.86;36.65;97014.00;5011315;28;20050;-74
2023/04/22 10:08:06;;;;;;;0.38;0.38;;;;;;;19.85;36.37;97009.66;5012675;28;20079;-74
2023/04/22 10:10:34;;;;;;;0.32;0.32;;;;;;;19.68;35.13;97006.38;5011521;28;20056;-74
2023/04/22 10:13:03;;;;;;;0.47;0.47;;;;;;;19.58;35.60;97014.47;5004064;28;20108;-75
2023/04/22 10:15:32;;;;;;;0.60;0.60;;;;;;;19.59;36.26;97005.25;5012728;28;20064;-75
2023/04/22 10:18:00;;;;;;;0.40;0.40;;;;;;;19.73;35.67;97011.78;5006221;28;20121;-74
2023/04/22 10:20:29;;;;;;;0.45;0.45;;;;;;;19.91;35.47;97008.59;5010554;28;20137;-75
2023/04/22 10:22:57;;;;;;;0.40;0.40;;;;;;;20.22;34.97;97009.44;5005011;28;20555;-75
2023/04/22 10:25:26;;;;;;;0.40;0.40;;;;;;;20.12;34.38;96996.69;5010215;28;20046;-75
2023/04/22 10:27:54;;;;;;;0.40;0.40;;;;;;;20.20;35.76;96997.22;5011832;28;20565;-74
2023/04/22 10:30:29;;;;;;;0.40;0.40;;;;;;;20.11;34.15;97010.50;4997452;28;20048;-74
2023/04/22 10:32:56;;;;;;;0.10;0.10;;;;;;;20.11;34.87;97003.19;5004642;28;20445;-75
2023/04/22 10:35:27;;;;;;;0.43;0.43;;;;;;;20.39;33.57;97001.06;5011303;28;20246;-73
2023/04/22 10:37:57;;;;;;;0.03;0.03;;;;;;;20.71;34.16;96996.13;5007929;28;20401;-76
2023/04/22 10:40:24;;;;;;;0.40;0.40;;;;;;;20.74;33.74;96992.88;5007608;28;20045;-75
2023/04/22 10:42:54;;;;;;;0.30;0.30;;;;;;;20.93;33.86;96982.25;5011280;28;20140;-75
2023/04/22 10:45:25;;;;;;;0.40;0.40;;;;;;;20.92;34.61;96979.81;5004206;28;20042;-75
2023/04/22 10:47:52;;;;;;;0.40;0.40;;;;;;;20.82;34.78;96992.31;5005167;28;20034;-75
2023/04/22 10:50:24;;;;;;;0.38;0.38;;;;;;;21.02;34.36;96979.78;5009348;28;20045;-75
2023/04/22 10:52:56;;;;;;;0.38;0.38;;;;;;;21.04;34.41;96983.84;5013280;28;20052;-75
2023/04/22 10:55:24;;;;;;;0.30;0.30;;;;;;;21.28;33.95;96983.25;5006913;28;20047;-75
2023/04/22 10:57:53;;;;;;;0.43;0.43;;;;;;;21.30;33.73;96984.59;5007598;28;20041;-75
2023/04/22 11:00:24;;;;;;;0.35;0.35;;;;;;;21.25;32.48;96979.19;5010198;28;20045;-75
2023/04/22 11:02:54;;;;;;;0.40;0.40;;;;;;;21.27;32.51;96981.63;5003120;28;20033;-75
2023/04/22 11:05:24;;;;;;;0.20;0.20;;;;;;;21.38;32.20;96977.78;5008400;28;20038;-75
2023/04/22 11:07:54;;;;;;;0.30;0.30;;;;;;;21.65;32.68;96988.22;5010048;28;20129;-75
2023/04/22 11:10:36;;;;;;;0.40;0.40;;;;;;;21.56;32.16;96983.41;5010726;28;20057;-74
2023/04/22 11:13:05;;;;;;;0.38;0.38;;;;;;;21.38;33.08;96977.78;5007642;28;20034;-75
2023/04/22 11:15:35;;;;;;;0.35;0.35;;;;;;;21.34;33.33;96966.66;5000379;28;20072;-75
2023/04/22 11:18:03;;;;;;;0.30;0.30;;;;;;;21.57;32.72;96971.44;5010534;28;20046;-75
2023/04/22 11:20:30;;;;;;;0.03;0.03;;;;;;;21.70;32.21;96967.25;5008932;28;20448;-75
2023/04/22 11:22:58;;;;;;;0.30;0.30;;;;;;;21.90;32.32;96960.91;5009342;28;20096;-75
2023/04/22 11:25:26;;;;;;;0.30;0.30;;;;;;;22.04;32.31;96967.34;5009573;28;20053;-75
2023/04/22 11:27:56;;;;;;;0.30;0.30;;;;;;;22.03;32.46;96963.00;4999477;28;20502;-75
2023/04/22 11:30:25;;;;;;;0.20;0.20;;;;;;;21.96;31.93;96962.50;5014448;28;20072;-75
2023/04/22 11:32:54;;;;;;;0.10;0.10;;;;;;;22.04;31.93;96964.63;5013003;28;20452;-75
2023/04/22 11:35:24;;;;;;;0.40;0.40;;;;;;;22.30;31.67;96968.78;5009250;28;20043;-75
2023/04/22 11:37:54;;;;;;;0.35;0.35;;;;;;;22.17;30.98;96960.47;5006770;28;20042;-75
2023/04/22 11:40:25;;;;;;;0.52;0.52;;;;;;;22.15;31.12;96949.84;5013396;28;20052;-75
2023/04/22 11:43:00;;;;;;;0.25;0.25;;;;;;;22.36;30.91;96958.66;5005816;28;20029;-75
2023/04/22 11:45:28;;;;;;;0.50;0.50;;;;;;;22.46;30.87;96946.88;5012660;28;20096;-75